createdAt,value
2022-10-11T00:00:40.221Z,3.00
2022-10-11T00:03:07.550Z,3.17
2022-10-11T00:05:36.930Z,3.67
2022-10-11T00:08:05.577Z,3.10
2022-10-11T00:10:34.744Z,3.00
2022-10-11T00:13:04.005Z,3.08
2022-10-11T00:15:33.355Z,3.42
2022-10-11T00:18:04.484Z,3.00
2022-10-11T00:20:34.051Z,3.75
2022-10-11T00:23:00.528Z,7.93
2022-10-11T00:25:29.340Z,10.07
2022-10-11T00:27:55.825Z,9.18
2022-10-11T00:30:24.689Z,8.05
2022-10-11T00:32:51.132Z,6.90
2022-10-11T00:35:18.144Z,5.15
2022-10-11T00:37:44.623Z,4.28
2022-10-11T00:40:16.135Z,3.75
2022-10-11T00:42:44.990Z,3.83
2022-10-11T00:45:26.683Z,3.65
2022-10-11T00:48:14.382Z,3.30
2022-10-11T00:50:44.158Z,3.53
2022-10-11T00:53:14.394Z,3.70
2022-10-11T00:55:50.797Z,3.65
2022-10-11T00:58:21.061Z,4.05
2022-10-11T01:00:49.794Z,3.88
2022-10-11T01:03:20.428Z,3.85
2022-10-11T01:05:52.300Z,3.97
2022-10-11T01:08:21.386Z,4.30
2022-10-11T01:10:47.974Z,4.60
2022-10-11T01:13:37.901Z,4.35
2022-10-11T01:16:32.601Z,4.07
2022-10-11T01:19:08.102Z,4.22
2022-10-11T01:21:40.533Z,4.40
2022-10-11T01:24:25.087Z,3.95
2022-10-11T01:27:51.269Z,4.35
2022-10-11T01:30:33.240Z,4.00
2022-10-11T01:33:05.790Z,3.80
2022-10-11T01:35:47.190Z,4.22
2022-10-11T01:38:28.852Z,4.38
2022-10-11T01:41:03.735Z,3.75
2022-10-11T01:43:31.377Z,3.90
2022-10-11T01:46:03.014Z,3.55
2022-10-11T01:48:32.023Z,4.10
2022-10-11T01:51:03.282Z,3.92
2022-10-11T01:54:05.161Z,3.63
2022-10-11T01:56:46.771Z,4.03
2022-10-11T01:59:37.092Z,3.90
2022-10-11T02:02:09.597Z,3.80
2022-10-11T02:04:54.582Z,4.03
2022-10-11T02:07:45.522Z,3.90
2022-10-11T02:10:22.601Z,3.88
2022-10-11T02:12:57.982Z,3.92
2022-10-11T02:15:27.255Z,3.75
2022-10-11T02:17:58.929Z,3.55
2022-10-11T02:20:31.617Z,3.35
2022-10-11T02:23:07.659Z,3.53
2022-10-11T02:25:36.782Z,4.05
2022-10-11T02:28:11.030Z,3.47
2022-10-11T02:30:41.046Z,3.33
2022-10-11T02:33:14.290Z,3.65
2022-10-11T02:35:51.954Z,3.85
2022-10-11T02:38:26.217Z,4.10
2022-10-11T02:41:05.724Z,4.20
2022-10-11T02:44:22.016Z,3.90
2022-10-11T02:46:51.667Z,3.65
2022-10-11T02:49:21.454Z,3.50
2022-10-11T02:51:50.330Z,3.88
2022-10-11T02:54:17.211Z,3.90
2022-10-11T02:56:46.230Z,3.65
2022-10-11T02:59:17.288Z,3.58
2022-10-11T03:01:49.008Z,3.67
2022-10-11T03:04:17.608Z,3.38
2022-10-11T03:06:44.107Z,4.03
2022-10-11T03:09:12.952Z,4.40
2022-10-11T03:11:39.512Z,3.95
2022-10-11T03:14:05.966Z,4.00
2022-10-11T03:16:32.426Z,4.13
2022-10-11T03:19:04.150Z,3.70
2022-10-11T03:21:30.708Z,3.92
2022-10-11T03:23:57.212Z,3.83
2022-10-11T03:26:28.653Z,3.60
2022-10-11T03:28:57.935Z,4.00
2022-10-11T03:31:24.455Z,3.90
2022-10-11T03:33:50.865Z,3.63
2022-10-11T03:36:17.609Z,3.80
2022-10-11T03:38:44.115Z,4.05
2022-10-11T03:41:15.334Z,4.03
2022-10-11T03:43:41.932Z,3.60
2022-10-11T03:46:10.709Z,4.03
2022-10-11T03:48:39.454Z,4.15
2022-10-11T03:51:08.288Z,4.10
2022-10-11T03:53:34.742Z,3.70
2022-10-11T03:56:05.858Z,4.38
2022-10-11T03:58:34.822Z,4.07
2022-10-11T04:01:03.755Z,4.28
2022-10-11T04:03:30.852Z,3.95
2022-10-11T04:06:05.268Z,4.47
2022-10-11T04:08:34.187Z,3.72
2022-10-11T04:11:00.661Z,4.07
2022-10-11T04:13:27.148Z,3.80
2022-10-11T04:15:53.648Z,3.80
2022-10-11T04:18:20.164Z,3.85
2022-10-11T04:20:48.948Z,3.95
2022-10-11T04:23:20.212Z,4.25
2022-10-11T04:25:48.261Z,3.92
2022-10-11T04:28:17.029Z,3.63
2022-10-11T04:30:43.587Z,4.55
2022-10-11T04:33:11.561Z,4.07
2022-10-11T04:35:41.341Z,4.53
2022-10-11T04:38:07.826Z,4.00
2022-10-11T04:40:36.370Z,3.90
2022-10-11T04:43:05.195Z,3.85
2022-10-11T04:45:32.137Z,4.25
2022-10-11T04:48:03.363Z,4.85
2022-10-11T04:50:29.781Z,4.40
2022-10-11T04:52:56.181Z,4.22
2022-10-11T04:55:25.086Z,4.65
2022-10-11T04:57:51.634Z,3.97
2022-10-11T05:00:18.216Z,4.45
2022-10-11T05:02:49.568Z,4.30
2022-10-11T05:05:17.593Z,4.28
2022-10-11T05:07:46.342Z,4.10
2022-10-11T05:10:15.143Z,4.30
2022-10-11T05:12:41.650Z,4.18
2022-10-11T05:15:08.752Z,4.50
2022-10-11T05:17:35.301Z,4.07
2022-10-11T05:20:04.003Z,4.07
2022-10-11T05:22:30.486Z,7.40
2022-10-11T05:24:59.281Z,5.03
2022-10-11T05:27:25.859Z,5.18
2022-10-11T05:29:52.348Z,5.85
2022-10-11T05:32:21.270Z,5.38
2022-10-11T05:34:47.697Z,5.97
2022-10-11T05:37:16.614Z,6.40
2022-10-11T05:39:43.090Z,7.07
2022-10-11T05:42:14.754Z,6.40
2022-10-11T05:44:41.186Z,6.88
2022-10-11T05:47:07.668Z,5.97
2022-10-11T05:49:41.909Z,6.88
2022-10-11T05:52:13.190Z,6.55
2022-10-11T05:54:41.878Z,7.38
2022-10-11T05:57:08.323Z,9.88
2022-10-11T05:59:37.929Z,7.50
2022-10-11T06:02:04.421Z,7.10
2022-10-11T06:04:30.879Z,7.13
2022-10-11T06:07:02.537Z,6.60
2022-10-11T06:09:32.149Z,6.80
2022-10-11T06:11:58.637Z,6.72
2022-10-11T06:14:26.023Z,6.78
2022-10-11T06:16:52.750Z,6.80
2022-10-11T06:19:19.209Z,5.95
2022-10-11T06:21:46.663Z,5.03
2022-10-11T06:24:13.431Z,5.72
2022-10-11T06:26:42.622Z,6.22
2022-10-11T06:29:09.893Z,5.47
2022-10-11T06:31:36.583Z,5.60
2022-10-11T06:34:10.076Z,5.63
2022-10-11T06:36:36.623Z,6.40
2022-10-11T06:39:03.127Z,6.63
2022-10-11T06:41:32.494Z,6.28
2022-10-11T06:43:59.313Z,6.13
2022-10-11T06:46:28.680Z,7.38
2022-10-11T06:48:56.347Z,7.82
2022-10-11T06:51:25.795Z,6.57
2022-10-11T06:53:56.682Z,5.95
2022-10-11T06:56:24.749Z,6.43
2022-10-11T06:58:51.413Z,6.43
2022-10-11T07:01:21.207Z,6.07
2022-10-11T07:03:48.342Z,5.90
2022-10-11T07:06:20.451Z,5.63
2022-10-11T07:08:50.008Z,5.97
2022-10-11T07:11:24.207Z,6.07
2022-10-11T07:13:52.866Z,5.88
2022-10-11T07:16:20.308Z,5.68
2022-10-11T07:18:47.858Z,6.05
2022-10-11T07:21:15.808Z,5.97
2022-10-11T07:23:42.930Z,6.30
2022-10-11T07:26:10.837Z,5.97
2022-10-11T07:28:39.416Z,6.55
2022-10-11T07:31:18.220Z,9.40
2022-10-11T07:33:47.423Z,7.35
2022-10-11T07:36:14.501Z,10.63
2022-10-11T07:38:43.591Z,10.52
2022-10-11T07:41:12.248Z,8.07
2022-10-11T07:43:39.243Z,6.35
2022-10-11T07:46:06.394Z,6.32
2022-10-11T07:48:36.265Z,6.85
2022-10-11T07:51:11.732Z,6.15
2022-10-11T07:53:49.471Z,6.40
2022-10-11T07:56:18.745Z,5.70
2022-10-11T07:58:51.335Z,5.68
2022-10-11T08:01:18.959Z,5.72
2022-10-11T08:03:45.570Z,5.82
2022-10-11T08:06:15.986Z,5.13
2022-10-11T08:08:42.465Z,5.78
2022-10-11T08:11:08.932Z,5.80
2022-10-11T08:13:37.982Z,5.60
2022-10-11T08:16:12.386Z,5.55
2022-10-11T08:18:39.786Z,5.35
2022-10-11T08:21:11.256Z,5.22
2022-10-11T08:23:37.912Z,5.05
2022-10-11T08:26:05.998Z,5.25
2022-10-11T08:28:32.945Z,5.60
2022-10-11T08:30:59.589Z,4.68
2022-10-11T08:33:26.731Z,5.53
2022-10-11T08:35:54.279Z,5.60
2022-10-11T08:38:21.270Z,5.82
2022-10-11T08:40:49.584Z,5.50
2022-10-11T08:43:43.986Z,5.45
2022-10-11T08:46:20.062Z,5.95
2022-10-11T08:48:49.202Z,5.45
2022-10-11T08:51:24.865Z,5.40
2022-10-11T08:53:57.955Z,5.40
2022-10-11T08:56:26.416Z,5.88
2022-10-11T08:59:01.983Z,5.65
2022-10-11T09:01:28.955Z,5.72
2022-10-11T09:03:55.742Z,5.50
2022-10-11T09:06:25.267Z,5.22
2022-10-11T09:09:13.726Z,5.15
2022-10-11T09:11:58.904Z,5.43
2022-10-11T09:14:37.584Z,4.97
2022-10-11T09:17:25.726Z,5.35
2022-10-11T09:20:10.893Z,5.28
2022-10-11T09:22:43.410Z,8.25
2022-10-11T09:25:25.366Z,5.18
2022-10-11T09:28:11.800Z,5.32
2022-10-11T09:30:45.825Z,5.20
2022-10-11T09:33:21.186Z,5.20
2022-10-11T09:35:52.908Z,4.63
2022-10-11T09:38:43.348Z,5.07
2022-10-11T09:41:14.653Z,4.90
2022-10-11T09:43:44.510Z,5.00
2022-10-11T09:46:29.525Z,5.03
2022-10-11T09:48:57.427Z,4.68
2022-10-11T09:51:27.190Z,4.47
2022-10-11T09:53:59.589Z,5.32
2022-10-11T09:56:30.733Z,4.53
2022-10-11T09:59:33.129Z,4.63
2022-10-11T10:02:15.029Z,4.95
2022-10-11T10:04:54.791Z,4.50
2022-10-11T10:07:23.874Z,4.55
2022-10-11T10:09:50.611Z,4.40
2022-10-11T10:12:23.982Z,4.30
2022-10-11T10:15:01.213Z,3.92
2022-10-11T10:17:27.746Z,3.90
2022-10-11T10:20:00.285Z,3.70
2022-10-11T10:22:31.136Z,4.25
2022-10-11T10:25:00.343Z,3.97
2022-10-11T10:27:30.372Z,3.85
2022-10-11T10:30:03.916Z,4.80
2022-10-11T10:32:51.734Z,4.03
2022-10-11T10:35:42.230Z,3.75
2022-10-11T10:38:26.966Z,3.53
2022-10-11T10:41:01.258Z,3.90
2022-10-11T10:43:33.079Z,3.97
2022-10-11T10:46:09.955Z,4.05
2022-10-11T10:49:34.548Z,4.00
2022-10-11T10:52:03.207Z,3.80
2022-10-11T10:54:29.586Z,3.60
2022-10-11T10:57:23.930Z,3.38
2022-10-11T11:05:41.001Z,3.70
2022-10-11T11:08:18.321Z,3.95
2022-10-11T11:11:12.519Z,3.75
2022-10-11T11:14:01.452Z,3.17
2022-10-11T11:16:30.960Z,3.10
2022-10-11T11:19:31.450Z,3.45
2022-10-11T11:22:35.625Z,3.35
2022-10-11T11:25:23.556Z,2.97
2022-10-11T11:28:04.397Z,3.25
2022-10-11T11:30:42.369Z,3.33
2022-10-11T11:33:20.943Z,3.65
2022-10-11T11:35:54.299Z,3.88
2022-10-11T11:38:39.012Z,3.45
2022-10-11T11:41:13.056Z,3.15
2022-10-11T11:43:58.938Z,3.30
2022-10-11T11:46:42.129Z,3.22
2022-10-11T11:49:17.258Z,2.97
2022-10-11T11:51:45.621Z,3.17
2022-10-11T11:54:15.152Z,2.70
2022-10-11T11:56:59.022Z,2.80
2022-10-11T11:59:31.679Z,2.85
2022-10-11T12:02:41.795Z,3.30
2022-10-11T12:05:10.806Z,2.85
2022-10-11T12:07:47.970Z,2.90
2022-10-11T12:10:39.627Z,2.60
2022-10-11T12:13:08.487Z,2.83
2022-10-11T12:15:36.060Z,3.30
2022-10-11T12:18:14.065Z,3.08
2022-10-11T12:20:42.105Z,3.78
2022-10-11T12:23:30.510Z,4.47
2022-10-11T12:26:29.714Z,3.65
2022-10-11T12:28:59.159Z,3.60
2022-10-11T12:31:29.762Z,3.47
2022-10-11T12:34:01.902Z,4.07
2022-10-11T12:36:29.541Z,3.25
2022-10-11T12:39:21.003Z,3.50
2022-10-11T12:41:47.428Z,3.78
2022-10-11T12:44:22.846Z,3.72
2022-10-11T12:46:55.229Z,3.88
2022-10-11T12:49:36.279Z,3.90
2022-10-11T12:52:22.283Z,3.78
2022-10-11T12:55:27.531Z,4.35
2022-10-11T12:58:15.872Z,3.78
2022-10-11T13:01:04.066Z,4.05
2022-10-11T13:03:46.799Z,4.30
2022-10-11T13:06:16.208Z,3.83
2022-10-11T13:08:47.334Z,3.20
2022-10-11T13:11:23.747Z,3.65
2022-10-11T13:14:09.785Z,3.72
2022-10-11T13:16:50.944Z,4.18
2022-10-11T13:19:21.571Z,3.90
2022-10-11T13:21:54.453Z,3.97
2022-10-11T13:24:30.673Z,3.77
2022-10-11T13:26:58.052Z,3.35
2022-10-11T13:29:35.196Z,3.70
2022-10-11T13:32:07.418Z,3.90
2022-10-11T13:34:38.287Z,3.72
2022-10-11T13:37:15.130Z,3.95
2022-10-11T13:39:41.926Z,3.92
2022-10-11T13:42:12.022Z,4.30
2022-10-11T13:44:39.531Z,4.35
2022-10-11T13:47:06.475Z,4.35
2022-10-11T13:49:38.383Z,3.97
2022-10-11T13:52:20.015Z,4.60
2022-10-11T13:54:55.880Z,4.40
2022-10-11T13:57:35.299Z,4.80
2022-10-11T14:00:07.800Z,4.63
2022-10-11T14:02:34.550Z,4.20
2022-10-11T14:05:01.065Z,4.22
2022-10-11T14:07:34.362Z,4.70
2022-10-11T14:10:00.931Z,4.57
2022-10-11T14:12:30.659Z,4.68
2022-10-11T14:14:58.369Z,5.60
2022-10-11T14:17:46.021Z,5.82
2022-10-11T14:20:37.264Z,5.47
2022-10-11T14:23:03.888Z,5.97
2022-10-11T14:25:30.617Z,6.15
2022-10-11T14:27:57.508Z,7.05
2022-10-11T14:30:27.290Z,7.07
2022-10-11T14:32:57.741Z,7.20
2022-10-11T14:35:27.185Z,6.70
2022-10-11T14:37:53.989Z,6.85
2022-10-11T14:40:26.374Z,7.20
2022-10-11T14:42:55.664Z,7.57
2022-10-11T14:45:24.853Z,6.82
2022-10-11T14:47:51.796Z,6.38
2022-10-11T14:50:27.425Z,6.40
2022-10-11T14:52:54.627Z,6.13
2022-10-11T14:55:21.069Z,5.75
2022-10-11T14:57:47.488Z,6.63
2022-10-11T15:00:25.876Z,6.38
2022-10-11T15:02:53.132Z,6.03
2022-10-11T15:05:21.019Z,6.43
2022-10-11T15:07:47.694Z,6.22
2022-10-11T15:10:24.994Z,7.00
2022-10-11T15:12:56.007Z,6.53
2022-10-11T15:15:25.218Z,7.35
2022-10-11T15:17:57.381Z,6.85
2022-10-11T15:20:28.450Z,6.55
2022-10-11T15:22:56.050Z,7.03
2022-10-11T15:25:23.496Z,6.95
2022-10-11T15:27:50.924Z,8.20
2022-10-11T15:30:41.431Z,8.73
2022-10-11T15:33:10.624Z,11.50
2022-10-11T15:35:37.072Z,7.70
2022-10-11T15:38:03.729Z,8.95
2022-10-11T15:40:35.699Z,12.60
2022-10-11T15:43:03.471Z,31.45
2022-10-11T15:45:30.624Z,30.65
2022-10-11T15:47:57.177Z,15.65
2022-10-11T15:50:37.399Z,13.68
2022-10-11T15:53:06.304Z,14.77
2022-10-11T15:55:35.843Z,11.10
2022-10-11T15:58:04.994Z,8.73
2022-10-11T16:00:33.786Z,8.10
2022-10-11T16:03:00.210Z,8.32
2022-10-11T16:05:27.539Z,8.40
2022-10-11T16:07:54.890Z,8.10
2022-10-11T16:10:21.370Z,8.65
2022-10-11T16:12:47.830Z,9.82
2022-10-11T16:15:15.061Z,9.23
2022-10-11T16:17:41.570Z,7.72
2022-10-11T16:20:08.547Z,9.32
2022-10-11T16:22:35.112Z,8.98
2022-10-11T16:25:03.341Z,9.05
2022-10-11T16:27:29.877Z,8.27
2022-10-11T16:29:56.474Z,7.03
2022-10-11T16:32:24.152Z,6.82
2022-10-11T16:34:50.796Z,8.07
2022-10-11T16:37:17.394Z,11.57
2022-10-11T16:39:43.946Z,19.95
2022-10-11T16:42:10.557Z,18.27
2022-10-11T16:44:39.242Z,14.02
2022-10-11T16:47:06.355Z,10.50
2022-10-11T16:49:33.626Z,10.15
2022-10-11T16:52:02.348Z,8.85
2022-10-11T16:54:30.217Z,8.98
2022-10-11T16:56:58.102Z,12.18
2022-10-11T16:59:24.908Z,10.90
2022-10-11T17:01:51.550Z,10.82
2022-10-11T17:04:18.120Z,10.30
2022-10-11T17:06:44.928Z,11.30
2022-10-11T17:09:14.499Z,19.88
2022-10-11T17:11:41.103Z,13.82
2022-10-11T17:14:08.223Z,8.68
2022-10-11T17:16:35.669Z,8.40
2022-10-11T17:19:02.270Z,7.85
2022-10-11T17:21:28.839Z,9.75
2022-10-11T17:23:55.380Z,11.70
2022-10-11T17:26:26.209Z,12.45
2022-10-11T17:28:58.471Z,10.27
2022-10-11T17:31:25.251Z,9.27
2022-10-11T17:33:53.166Z,9.07
2022-10-11T17:36:24.313Z,8.35
2022-10-11T17:38:52.077Z,13.32
2022-10-11T17:41:19.389Z,15.02
2022-10-11T17:43:47.494Z,11.85
2022-10-11T17:46:15.873Z,11.98
2022-10-11T17:48:42.520Z,10.82
2022-10-11T17:51:11.279Z,9.70
2022-10-11T17:53:37.960Z,11.10
2022-10-11T17:56:10.050Z,11.70
2022-10-11T17:58:36.892Z,10.65
2022-10-11T18:01:09.995Z,10.77
2022-10-11T18:03:37.263Z,12.23
2022-10-11T18:06:09.357Z,14.20
2022-10-11T18:08:40.627Z,13.43
2022-10-11T18:11:16.494Z,11.90
2022-10-11T18:13:46.342Z,11.10
2022-10-11T18:16:18.111Z,10.30
2022-10-11T18:18:44.646Z,9.80
2022-10-11T18:21:13.754Z,9.63
2022-10-11T18:23:41.056Z,11.27
2022-10-11T18:26:11.709Z,13.05
2022-10-11T18:28:38.807Z,13.15
2022-10-11T18:31:18.568Z,13.77
2022-10-11T18:33:50.770Z,13.38
2022-10-11T18:36:20.888Z,13.30
2022-10-11T18:38:49.130Z,13.32
2022-10-11T18:41:19.801Z,12.75
2022-10-11T18:44:09.071Z,13.13
2022-10-11T18:46:36.338Z,12.93
2022-10-11T18:49:03.418Z,12.98
2022-10-11T18:51:33.263Z,12.45
2022-10-11T18:54:00.638Z,12.82
2022-10-11T18:56:28.588Z,12.40
2022-10-11T18:58:56.987Z,12.82
2022-10-11T19:01:35.789Z,11.60
2022-10-11T19:04:04.590Z,13.15
2022-10-11T19:06:40.659Z,13.32
2022-10-11T19:09:17.710Z,12.70
2022-10-11T19:11:45.243Z,10.90
2022-10-11T19:14:15.123Z,14.90
2022-10-11T19:16:45.457Z,14.73
2022-10-11T19:19:12.943Z,11.60
2022-10-11T19:21:41.778Z,13.15
2022-10-11T19:24:09.250Z,12.73
2022-10-11T19:26:38.216Z,13.48
2022-10-11T19:29:10.481Z,13.35
2022-10-11T19:31:41.696Z,13.40
2022-10-11T19:34:08.216Z,12.55
2022-10-11T19:36:37.109Z,11.95
2022-10-11T19:39:06.038Z,13.43
2022-10-11T19:41:32.739Z,41.47
2022-10-11T19:43:59.754Z,28.90
2022-10-11T19:49:17.363Z,16.55
2022-10-11T19:51:44.283Z,22.23
2022-10-11T19:54:13.563Z,22.92
2022-10-11T19:56:40.039Z,23.38
2022-10-11T19:59:06.561Z,21.23
2022-10-11T20:01:37.649Z,19.73
2022-10-11T20:04:07.881Z,18.10
2022-10-11T20:06:38.918Z,17.20
2022-10-11T20:09:28.022Z,14.32
2022-10-11T20:11:53.401Z,12.48
2022-10-11T20:14:20.571Z,14.68
2022-10-11T20:16:50.110Z,15.30
2022-10-11T20:19:16.653Z,15.75
2022-10-11T20:21:43.907Z,15.68
2022-10-11T20:24:10.499Z,19.52
2022-10-11T20:26:37.507Z,21.27
2022-10-11T20:29:04.097Z,19.58
2022-10-11T20:31:33.319Z,18.63
2022-10-11T20:34:02.206Z,18.13
2022-10-11T20:36:32.014Z,16.92
2022-10-11T20:39:00.012Z,16.73
2022-10-11T20:41:29.128Z,15.65
2022-10-11T20:43:56.876Z,15.07
2022-10-11T20:46:26.302Z,19.75
2022-10-11T20:49:04.012Z,16.50
2022-10-11T20:51:33.378Z,15.00
2022-10-11T20:54:01.949Z,19.85
2022-10-11T20:56:29.722Z,16.20
2022-10-11T20:58:57.498Z,15.68
2022-10-11T21:01:30.095Z,15.80
2022-10-11T21:04:04.050Z,16.23
2022-10-11T21:06:32.602Z,17.90
2022-10-11T21:08:59.942Z,16.95
2022-10-11T21:11:27.695Z,24.35
2022-10-11T21:13:58.565Z,17.85
2022-10-11T21:16:25.957Z,14.60
2022-10-11T21:18:54.754Z,14.25
2022-10-11T21:21:23.827Z,14.70
2022-10-11T21:23:54.022Z,17.50
2022-10-11T21:26:20.772Z,16.85
2022-10-11T21:28:47.319Z,16.63
2022-10-11T21:31:16.528Z,15.57
2022-10-11T21:33:44.142Z,15.27
2022-10-11T21:36:14.667Z,16.83
2022-10-11T21:38:41.969Z,16.40
2022-10-11T21:41:11.422Z,14.68
2022-10-11T21:43:38.473Z,14.32
2022-10-11T21:46:13.891Z,12.00
2022-10-11T21:48:40.552Z,14.73
2022-10-11T21:53:44.362Z,14.13
2022-10-11T21:56:10.823Z,14.07
2022-10-11T21:58:37.457Z,15.48
2022-10-11T22:01:04.074Z,18.52
2022-10-11T22:03:30.647Z,43.10
2022-10-11T22:05:57.284Z,57.80
2022-10-11T22:08:23.810Z,58.65
2022-10-11T22:10:56.476Z,73.30
2022-10-11T22:13:24.097Z,45.65
2022-10-11T22:15:50.873Z,46.95
2022-10-11T22:18:17.521Z,30.73
2022-10-11T22:20:44.220Z,28.13
2022-10-11T22:23:11.608Z,25.10
2022-10-11T22:25:39.348Z,28.48
2022-10-11T22:28:08.448Z,34.47
2022-10-11T22:30:35.027Z,32.03
2022-10-11T22:33:01.511Z,24.67
2022-10-11T22:35:27.986Z,35.80
2022-10-11T22:37:54.444Z,42.22
2022-10-11T22:40:23.595Z,70.43
2022-10-11T22:42:50.079Z,77.93
2022-10-11T22:45:16.778Z,41.30
2022-10-11T22:47:43.221Z,41.75
2022-10-11T22:50:09.790Z,61.88
2022-10-11T22:52:36.352Z,84.20
2022-10-11T22:55:02.816Z,53.40
2022-10-11T22:57:29.640Z,31.75
2022-10-11T22:59:56.086Z,32.08
2022-10-11T23:02:22.584Z,63.63
2022-10-11T23:04:49.044Z,30.77
2022-10-11T23:07:17.805Z,22.83
2022-10-11T23:09:44.238Z,18.42
2022-10-11T23:12:10.698Z,17.98
2022-10-11T23:14:37.127Z,16.85
2022-10-11T23:17:03.597Z,30.13
2022-10-11T23:19:30.097Z,35.92
2022-10-11T23:21:56.554Z,22.38
2022-10-11T23:24:23.003Z,18.40
2022-10-11T23:26:49.555Z,15.30
2022-10-11T23:29:16.041Z,16.30
2022-10-11T23:31:42.512Z,20.27
2022-10-11T23:34:09.001Z,15.57
2022-10-11T23:36:35.473Z,16.83
2022-10-11T23:39:01.980Z,32.70
2022-10-11T23:41:29.733Z,19.48
2022-10-11T23:43:56.818Z,16.95
2022-10-11T23:46:23.357Z,15.55
2022-10-11T23:48:49.966Z,16.10
2022-10-11T23:51:16.701Z,15.13
2022-10-11T23:53:44.316Z,15.68
2022-10-11T23:56:11.506Z,15.43
2022-10-11T23:58:38.490Z,15.25
